createdAt,value
2022-10-22T00:00:06.816Z,14
2022-10-22T00:05:07.001Z,10.8
2022-10-22T00:10:06.710Z,12.2
2022-10-22T00:15:06.753Z,11.5
2022-10-22T00:20:06.711Z,14.9
2022-10-22T00:25:07.060Z,14.2
2022-10-22T00:30:06.741Z,27.7
2022-10-22T00:35:07.094Z,24.1
2022-10-22T00:40:06.382Z,29.3
2022-10-22T00:45:06.330Z,28.4
2022-10-22T00:50:06.405Z,19.2
2022-10-22T00:55:06.929Z,25.1
2022-10-22T01:00:07.134Z,20.3
2022-10-22T01:05:06.829Z,18.8
2022-10-22T01:10:07.035Z,22.3
2022-10-22T01:15:06.723Z,19.8
2022-10-22T01:20:06.318Z,26.7
2022-10-22T01:25:07.208Z,15.9
2022-10-22T01:30:07.229Z,29.2
2022-10-22T01:40:07.173Z,20.1
2022-10-22T01:45:07.182Z,32.3
2022-10-22T01:50:06.503Z,16.2
2022-10-22T01:55:06.795Z,14
2022-10-22T02:00:07.158Z,12.8
2022-10-22T02:05:06.961Z,15.7
2022-10-22T02:10:06.666Z,21.2
2022-10-22T02:15:06.382Z,24.5
2022-10-22T02:20:06.957Z,16.9
2022-10-22T02:25:06.984Z,15.2
2022-10-22T02:30:06.529Z,15.3
2022-10-22T02:35:06.894Z,19
2022-10-22T02:40:06.905Z,31.7
2022-10-22T02:45:06.809Z,20.1
2022-10-22T02:50:06.694Z,17.4
2022-10-22T02:55:06.556Z,13.9
2022-10-22T03:00:06.696Z,14.8
2022-10-22T03:05:06.297Z,12.4
2022-10-22T03:10:07.244Z,16
2022-10-22T03:15:07.229Z,25.5
2022-10-22T03:20:07.231Z,15.7
2022-10-22T03:25:07.113Z,16.4
2022-10-22T03:30:06.565Z,16.4
2022-10-22T03:35:06.638Z,13.2
2022-10-22T03:40:06.410Z,15.5
2022-10-22T03:45:06.448Z,27.9
2022-10-22T03:50:06.546Z,19.6
2022-10-22T03:55:06.500Z,16.2
2022-10-22T04:00:06.501Z,18.5
2022-10-22T04:05:06.259Z,14.6
2022-10-22T04:10:07.207Z,19.6
2022-10-22T04:15:06.392Z,17.5
2022-10-22T04:20:06.490Z,23.2
2022-10-22T04:25:06.445Z,22.9
2022-10-22T04:30:06.407Z,20.2
2022-10-22T04:35:06.840Z,26.8
2022-10-22T04:40:06.463Z,33.1
2022-10-22T04:45:06.338Z,32.4
2022-10-22T04:50:06.312Z,23
2022-10-22T04:55:06.476Z,29.6
2022-10-22T05:00:06.703Z,18.2
2022-10-22T05:05:06.332Z,24.1
2022-10-22T05:10:06.356Z,24.7
2022-10-22T05:15:06.430Z,33.3
2022-10-22T05:20:06.488Z,28.2
2022-10-22T05:25:06.550Z,31.9
2022-10-22T05:30:06.881Z,29
2022-10-22T05:35:06.895Z,39.8
2022-10-22T05:40:06.962Z,25.8
2022-10-22T05:45:06.502Z,23.8
2022-10-22T05:50:06.699Z,30
2022-10-22T05:55:06.670Z,24.7
2022-10-22T06:00:06.913Z,26.3
2022-10-22T06:05:06.560Z,27.4
2022-10-22T06:10:06.514Z,21.1
2022-10-22T06:15:06.394Z,29.3
2022-10-22T06:20:06.433Z,44.5
2022-10-22T06:25:06.455Z,30.9
2022-10-22T06:30:06.438Z,33.2
2022-10-22T06:35:06.512Z,27.2
2022-10-22T06:40:06.462Z,30.9
2022-10-22T06:45:06.629Z,33.4
2022-10-22T06:50:06.643Z,43.8
2022-10-22T06:55:06.808Z,36
2022-10-22T07:05:06.492Z,31.8
2022-10-22T07:10:06.501Z,30.4
2022-10-22T07:15:06.408Z,22.6
2022-10-22T07:20:06.511Z,27
2022-10-22T07:25:06.407Z,19.3
2022-10-22T07:30:06.396Z,23.2
2022-10-22T07:35:06.418Z,14
2022-10-22T07:40:06.464Z,21.4
2022-10-22T07:45:06.407Z,23
2022-10-22T07:50:06.396Z,13.5
2022-10-22T07:55:06.292Z,17.3
2022-10-22T08:00:06.450Z,14.1
2022-10-22T08:05:07.152Z,16.8
2022-10-22T08:10:07.225Z,16
2022-10-22T08:15:06.284Z,16.5
2022-10-22T08:20:06.445Z,9.9
2022-10-22T08:25:06.487Z,13.5
2022-10-22T08:30:06.503Z,12.4
2022-10-22T08:35:06.531Z,17.4
2022-10-22T08:40:06.577Z,17
2022-10-22T08:45:06.442Z,19.1
2022-10-22T08:50:07.233Z,22
2022-10-22T08:55:06.884Z,17
2022-10-22T09:00:07.070Z,8.4
2022-10-22T09:05:06.656Z,11.1
2022-10-22T09:10:07.192Z,18.7
2022-10-22T09:15:06.473Z,9
2022-10-22T09:20:06.642Z,11
2022-10-22T09:25:07.124Z,13.8
2022-10-22T09:30:06.517Z,13.6
2022-10-22T09:35:07.008Z,12.3
2022-10-22T09:40:07.001Z,9.6
2022-10-22T09:45:07.054Z,27.8
2022-10-22T09:50:07.238Z,9.4
2022-10-22T09:55:06.684Z,16.5
2022-10-22T10:00:06.779Z,14
2022-10-22T10:05:07.208Z,13.2
2022-10-22T10:10:07.223Z,12.6
2022-10-22T10:15:06.291Z,9
2022-10-22T10:20:06.404Z,12.1
2022-10-22T10:25:06.835Z,8.6
2022-10-22T10:30:06.457Z,8.4
2022-10-22T10:35:06.512Z,11.2
2022-10-22T10:40:07.234Z,8.4
2022-10-22T10:45:06.977Z,8.5
2022-10-22T10:50:07.022Z,6.7
2022-10-22T10:55:06.804Z,11.4
2022-10-22T11:00:06.367Z,8.6
2022-10-22T11:05:06.671Z,7.9
2022-10-22T11:10:07.017Z,5.8
2022-10-22T11:15:06.394Z,19.2
2022-10-22T11:20:06.647Z,8.5
2022-10-22T11:25:07.129Z,7.4
2022-10-22T11:30:06.875Z,12
2022-10-22T11:35:06.941Z,13.6
2022-10-22T11:40:07.052Z,7.3
2022-10-22T11:45:06.753Z,11.7
2022-10-22T11:50:06.689Z,8.1
2022-10-22T11:55:06.302Z,12.6
2022-10-22T12:00:06.886Z,12.5
2022-10-22T12:05:06.763Z,6.1
2022-10-22T12:10:06.307Z,8.4
2022-10-22T12:15:06.798Z,20
2022-10-22T12:20:06.799Z,15.5
2022-10-22T12:25:06.767Z,13.7
2022-10-22T12:30:06.345Z,10.4
2022-10-22T12:35:06.253Z,8.9
2022-10-22T12:40:07.249Z,11.2
2022-10-22T12:45:06.237Z,12.4
2022-10-22T12:50:06.418Z,10.5
2022-10-22T12:55:06.346Z,15.1
2022-10-22T13:00:07.296Z,12.8
2022-10-22T13:05:06.741Z,9.4
2022-10-22T13:10:06.670Z,10.5
2022-10-22T13:15:06.821Z,19.9
2022-10-22T13:20:06.815Z,19.4
2022-10-22T13:25:06.851Z,11.9
2022-10-22T13:30:07.054Z,14.2
2022-10-22T13:35:06.994Z,34.9
2022-10-22T13:40:06.914Z,18.6
2022-10-22T13:45:06.749Z,24.6
2022-10-22T13:50:06.750Z,14.8
2022-10-22T13:55:06.591Z,27.3
2022-10-22T14:00:06.728Z,10.3
2022-10-22T14:05:07.166Z,18.1
2022-10-22T14:10:07.248Z,11.4
2022-10-22T14:15:07.201Z,19.5
2022-10-22T14:20:06.452Z,13.9
2022-10-22T14:25:06.348Z,13.6
2022-10-22T14:30:06.277Z,15.5
2022-10-22T14:35:06.249Z,16.6
2022-10-22T14:40:06.308Z,13.1
2022-10-22T14:45:06.231Z,23.4
2022-10-22T14:50:07.040Z,21.3
2022-10-22T14:55:06.970Z,38.4
2022-10-22T15:00:07.160Z,28.5
2022-10-22T15:05:06.659Z,71
2022-10-22T15:10:06.742Z,44.8
2022-10-22T15:15:07.232Z,44.2
2022-10-22T15:20:06.580Z,34.1
2022-10-22T15:25:06.337Z,35.8
2022-10-22T15:30:07.222Z,63.3
2022-10-22T15:35:06.243Z,49.7
2022-10-22T15:40:07.244Z,75.4
2022-10-22T15:45:07.173Z,50.5
2022-10-22T15:50:07.175Z,49.4
2022-10-22T15:55:06.271Z,37.4
2022-10-22T16:00:06.358Z,69.6
2022-10-22T16:05:06.954Z,48.9
2022-10-22T16:10:06.949Z,79
2022-10-22T16:15:07.129Z,74.6
2022-10-22T16:20:07.113Z,61.2
2022-10-22T16:25:06.750Z,76.7
2022-10-22T16:30:07.078Z,64.2
2022-10-22T16:35:07.157Z,131
2022-10-22T16:40:06.505Z,73.8
2022-10-22T16:45:06.623Z,89.5
2022-10-22T16:50:06.697Z,64.1
2022-10-22T16:55:06.653Z,87.5
2022-10-22T17:00:07.034Z,153.4
2022-10-22T17:05:06.464Z,109
2022-10-22T17:10:06.826Z,112
2022-10-22T17:15:06.978Z,140.2
2022-10-22T17:20:07.008Z,172
2022-10-22T17:25:06.969Z,144.7
2022-10-22T17:30:06.524Z,128
2022-10-22T17:35:06.489Z,101.9
2022-10-22T17:40:06.526Z,115.5
2022-10-22T17:45:06.675Z,117.8
2022-10-22T17:50:06.732Z,139.2
2022-10-22T17:55:06.666Z,148.3
2022-10-22T18:00:06.790Z,131.4
2022-10-22T18:05:06.435Z,115.5
2022-10-22T18:10:07.131Z,142.9
2022-10-22T18:15:06.993Z,123.6
2022-10-22T18:20:07.153Z,201.1
2022-10-22T18:25:06.721Z,159.4
2022-10-22T18:30:06.643Z,183.1
2022-10-22T18:35:06.641Z,124.1
2022-10-22T18:40:06.732Z,254.2
2022-10-22T18:45:06.652Z,199.1
2022-10-22T18:50:06.730Z,182.5
2022-10-22T18:55:06.681Z,153
2022-10-22T19:00:06.917Z,197.1
2022-10-22T19:05:06.396Z,172.3
2022-10-22T19:10:06.435Z,146.2
2022-10-22T19:15:06.313Z,150.5
2022-10-22T19:20:06.452Z,168.3
2022-10-22T19:25:06.495Z,169
2022-10-22T19:30:06.391Z,137.2
2022-10-22T19:35:06.288Z,119.5
2022-10-22T19:40:06.312Z,101.7
2022-10-22T19:45:06.254Z,98.2
2022-10-22T19:50:06.263Z,127.5
2022-10-22T19:55:07.227Z,125.6
2022-10-22T20:00:07.322Z,151.8
2022-10-22T20:05:06.794Z,158.5
2022-10-22T20:10:06.944Z,117.6
2022-10-22T20:15:07.033Z,193.7
2022-10-22T20:20:07.013Z,174.7
2022-10-22T20:25:06.680Z,198.3
2022-10-22T20:30:06.551Z,151.4
2022-10-22T20:35:06.591Z,125
2022-10-22T20:40:06.698Z,162.4
2022-10-22T20:45:06.533Z,151.4
2022-10-22T20:50:06.632Z,187.6
2022-10-22T20:55:06.668Z,166.1
2022-10-22T21:00:06.776Z,157.3
2022-10-22T21:05:06.246Z,145.1
2022-10-22T21:10:07.235Z,163.5
2022-10-22T21:15:06.265Z,129.6
2022-10-22T21:20:06.389Z,151.1
2022-10-22T21:25:06.407Z,162.2
2022-10-22T21:30:06.465Z,149
2022-10-22T21:35:06.443Z,186.9
2022-10-22T21:40:06.514Z,101.7
2022-10-22T21:50:07.080Z,103.9
2022-10-22T21:55:06.447Z,142.6
2022-10-22T22:00:06.607Z,144.3
2022-10-22T22:05:07.154Z,140.6
2022-10-22T22:10:07.173Z,155.3
2022-10-22T22:15:07.235Z,113.1
2022-10-22T22:20:07.122Z,68.8
2022-10-22T22:25:06.634Z,108.4
2022-10-22T22:30:06.658Z,114.8
2022-10-22T22:35:06.533Z,124.6
2022-10-22T22:40:06.696Z,124.9
2022-10-22T22:45:06.644Z,80
2022-10-22T22:50:06.666Z,102.4
2022-10-22T22:55:07.023Z,51
2022-10-22T23:00:06.494Z,77.7
2022-10-22T23:05:08.950Z,87.4
2022-10-22T23:10:06.565Z,109.8
2022-10-22T23:15:07.203Z,81.7
2022-10-22T23:20:06.908Z,66.8
2022-10-22T23:25:06.839Z,43.9
2022-10-22T23:30:06.781Z,49.1
2022-10-22T23:35:06.611Z,46.4
2022-10-22T23:40:06.546Z,31.1
2022-10-22T23:45:06.522Z,28.9
2022-10-22T23:50:06.331Z,18.2
2022-10-22T23:55:07.082Z,21.8
